sensor_id;sensor_type;location;lat;lon;timestamp;P1;durP1;ratioP1;P2;durP2;ratioP2
5951;SDS011;3001;42.622;23.194;2022-09-06T00:00:01;8.53;;;4.60;;
5951;SDS011;3001;42.622;23.194;2022-09-06T00:02:30;4.80;;;4.60;;
5951;SDS011;3001;42.622;23.194;2022-09-06T00:04:57;5.00;;;4.70;;
5951;SDS011;3001;42.622;23.194;2022-09-06T00:07:26;4.63;;;4.30;;
5951;SDS011;3001;42.622;23.194;2022-09-06T00:09:53;4.87;;;4.47;;
5951;SDS011;3001;42.622;23.194;2022-09-06T00:12:20;4.77;;;4.47;;
5951;SDS011;3001;42.622;23.194;2022-09-06T00:14:47;4.70;;;4.40;;
5951;SDS011;3001;42.622;23.194;2022-09-06T00:17:14;5.53;;;5.07;;
5951;SDS011;3001;42.622;23.194;2022-09-06T00:19:41;4.37;;;4.17;;
5951;SDS011;3001;42.622;23.194;2022-09-06T00:22:07;4.60;;;4.23;;
5951;SDS011;3001;42.622;23.194;2022-09-06T00:24:35;7.93;;;5.10;;
5951;SDS011;3001;42.622;23.194;2022-09-06T00:27:03;4.73;;;4.43;;
5951;SDS011;3001;42.622;23.194;2022-09-06T00:29:30;4.37;;;4.07;;
5951;SDS011;3001;42.622;23.194;2022-09-06T00:31:57;4.07;;;3.87;;
5951;SDS011;3001;42.622;23.194;2022-09-06T00:34:24;4.67;;;4.17;;
5951;SDS011;3001;42.622;23.194;2022-09-06T00:36:51;5.03;;;4.63;;
5951;SDS011;3001;42.622;23.194;2022-09-06T00:39:18;4.90;;;4.60;;
5951;SDS011;3001;42.622;23.194;2022-09-06T00:41:46;6.00;;;4.37;;
5951;SDS011;3001;42.622;23.194;2022-09-06T00:44:13;4.53;;;4.23;;
5951;SDS011;3001;42.622;23.194;2022-09-06T00:46:40;7.00;;;4.43;;
5951;SDS011;3001;42.622;23.194;2022-09-06T00:49:11;4.90;;;4.40;;
5951;SDS011;3001;42.622;23.194;2022-09-06T00:51:48;4.33;;;4.13;;
5951;SDS011;3001;42.622;23.194;2022-09-06T00:54:16;4.50;;;4.20;;
5951;SDS011;3001;42.622;23.194;2022-09-06T00:56:43;6.67;;;4.80;;
5951;SDS011;3001;42.622;23.194;2022-09-06T00:59:12;4.97;;;4.57;;
5951;SDS011;3001;42.622;23.194;2022-09-06T01:01:39;5.53;;;5.10;;
5951;SDS011;3001;42.622;23.194;2022-09-06T01:04:06;4.33;;;4.13;;
5951;SDS011;3001;42.622;23.194;2022-09-06T01:06:36;5.03;;;4.73;;
5951;SDS011;3001;42.622;23.194;2022-09-06T01:09:16;5.43;;;4.93;;
5951;SDS011;3001;42.622;23.194;2022-09-06T01:11:57;4.63;;;4.43;;
5951;SDS011;3001;42.622;23.194;2022-09-06T01:14:39;5.23;;;4.83;;
5951;SDS011;3001;42.622;23.194;2022-09-06T01:17:18;5.10;;;4.50;;
5951;SDS011;3001;42.622;23.194;2022-09-06T01:26:04;7.50;;;4.90;;
5951;SDS011;3001;42.622;23.194;2022-09-06T01:28:54;4.53;;;4.33;;
5951;SDS011;3001;42.622;23.194;2022-09-06T01:31:22;4.67;;;4.40;;
5951;SDS011;3001;42.622;23.194;2022-09-06T01:33:58;4.87;;;4.57;;
5951;SDS011;3001;42.622;23.194;2022-09-06T01:36:38;5.50;;;5.00;;
5951;SDS011;3001;42.622;23.194;2022-09-06T01:39:09;5.40;;;5.10;;
5951;SDS011;3001;42.622;23.194;2022-09-06T01:41:47;4.77;;;4.57;;
5951;SDS011;3001;42.622;23.194;2022-09-06T01:44:15;5.20;;;4.90;;
5951;SDS011;3001;42.622;23.194;2022-09-06T01:46:43;5.23;;;4.80;;
5951;SDS011;3001;42.622;23.194;2022-09-06T01:49:22;5.50;;;5.20;;
5951;SDS011;3001;42.622;23.194;2022-09-06T01:52:07;5.33;;;5.03;;
5951;SDS011;3001;42.622;23.194;2022-09-06T01:54:48;5.60;;;4.80;;
5951;SDS011;3001;42.622;23.194;2022-09-06T01:57:29;5.27;;;4.77;;
5951;SDS011;3001;42.622;23.194;2022-09-06T02:00:08;5.13;;;4.83;;
5951;SDS011;3001;42.622;23.194;2022-09-06T02:02:41;5.33;;;5.03;;
5951;SDS011;3001;42.622;23.194;2022-09-06T02:05:17;5.03;;;4.73;;
5951;SDS011;3001;42.622;23.194;2022-09-06T02:07:49;4.80;;;4.60;;
5951;SDS011;3001;42.622;23.194;2022-09-06T02:10:21;5.30;;;5.00;;
5951;SDS011;3001;42.622;23.194;2022-09-06T02:12:52;5.40;;;4.93;;
5951;SDS011;3001;42.622;23.194;2022-09-06T02:15:24;5.30;;;5.00;;
5951;SDS011;3001;42.622;23.194;2022-09-06T02:17:55;5.63;;;5.27;;
5951;SDS011;3001;42.622;23.194;2022-09-06T02:20:27;5.33;;;4.83;;
5951;SDS011;3001;42.622;23.194;2022-09-06T02:22:58;6.00;;;5.50;;
5951;SDS011;3001;42.622;23.194;2022-09-06T02:25:30;5.87;;;4.87;;
5951;SDS011;3001;42.622;23.194;2022-09-06T02:28:01;5.50;;;5.20;;
5951;SDS011;3001;42.622;23.194;2022-09-06T02:30:29;5.03;;;4.63;;
5951;SDS011;3001;42.622;23.194;2022-09-06T02:32:58;5.70;;;5.20;;
5951;SDS011;3001;42.622;23.194;2022-09-06T02:35:29;5.37;;;5.07;;
5951;SDS011;3001;42.622;23.194;2022-09-06T02:37:56;5.30;;;5.00;;
5951;SDS011;3001;42.622;23.194;2022-09-06T02:40:23;5.10;;;4.67;;
5951;SDS011;3001;42.622;23.194;2022-09-06T02:42:50;5.70;;;5.20;;
5951;SDS011;3001;42.622;23.194;2022-09-06T02:45:17;5.00;;;4.70;;
5951;SDS011;3001;42.622;23.194;2022-09-06T02:47:45;4.80;;;4.50;;
5951;SDS011;3001;42.622;23.194;2022-09-06T02:50:12;6.83;;;5.63;;
5951;SDS011;3001;42.622;23.194;2022-09-06T02:52:39;5.50;;;5.20;;
5951;SDS011;3001;42.622;23.194;2022-09-06T02:55:06;6.13;;;5.77;;
5951;SDS011;3001;42.622;23.194;2022-09-06T02:57:33;5.43;;;5.13;;
5951;SDS011;3001;42.622;23.194;2022-09-06T03:00:00;5.50;;;5.10;;
5951;SDS011;3001;42.622;23.194;2022-09-06T03:02:28;6.20;;;5.60;;
5951;SDS011;3001;42.622;23.194;2022-09-06T03:04:56;6.00;;;5.50;;
5951;SDS011;3001;42.622;23.194;2022-09-06T03:07:23;6.10;;;5.60;;
5951;SDS011;3001;42.622;23.194;2022-09-06T03:09:50;5.57;;;5.07;;
5951;SDS011;3001;42.622;23.194;2022-09-06T03:12:16;6.03;;;5.40;;
5951;SDS011;3001;42.622;23.194;2022-09-06T03:14:43;5.60;;;5.17;;
5951;SDS011;3001;42.622;23.194;2022-09-06T03:17:10;5.60;;;5.20;;
5951;SDS011;3001;42.622;23.194;2022-09-06T03:19:37;6.40;;;5.90;;
5951;SDS011;3001;42.622;23.194;2022-09-06T03:22:05;5.77;;;5.37;;
5951;SDS011;3001;42.622;23.194;2022-09-06T03:24:31;5.87;;;5.40;;
5951;SDS011;3001;42.622;23.194;2022-09-06T03:26:58;5.70;;;5.40;;
5951;SDS011;3001;42.622;23.194;2022-09-06T03:29:25;5.70;;;5.40;;
5951;SDS011;3001;42.622;23.194;2022-09-06T03:31:52;5.97;;;5.67;;
5951;SDS011;3001;42.622;23.194;2022-09-06T03:34:18;5.80;;;5.50;;
5951;SDS011;3001;42.622;23.194;2022-09-06T03:36:45;6.17;;;5.67;;
5951;SDS011;3001;42.622;23.194;2022-09-06T03:39:13;5.93;;;4.87;;
5951;SDS011;3001;42.622;23.194;2022-09-06T03:41:40;5.87;;;5.57;;
5951;SDS011;3001;42.622;23.194;2022-09-06T03:44:07;6.17;;;5.67;;
5951;SDS011;3001;42.622;23.194;2022-09-06T03:46:33;5.83;;;5.50;;
5951;SDS011;3001;42.622;23.194;2022-09-06T03:49:00;6.43;;;5.90;;
5951;SDS011;3001;42.622;23.194;2022-09-06T03:51:27;6.40;;;5.90;;
5951;SDS011;3001;42.622;23.194;2022-09-06T03:53:54;6.47;;;5.93;;
5951;SDS011;3001;42.622;23.194;2022-09-06T03:56:23;6.20;;;5.70;;
5951;SDS011;3001;42.622;23.194;2022-09-06T03:58:49;6.40;;;5.93;;
5951;SDS011;3001;42.622;23.194;2022-09-06T04:01:16;6.20;;;5.77;;
5951;SDS011;3001;42.622;23.194;2022-09-06T04:03:43;5.60;;;5.30;;
5951;SDS011;3001;42.622;23.194;2022-09-06T04:06:10;5.23;;;4.83;;
5951;SDS011;3001;42.622;23.194;2022-09-06T04:08:37;5.63;;;5.33;;
5951;SDS011;3001;42.622;23.194;2022-09-06T04:11:04;5.80;;;5.50;;
5951;SDS011;3001;42.622;23.194;2022-09-06T04:13:33;5.37;;;4.90;;
5951;SDS011;3001;42.622;23.194;2022-09-06T04:16:00;5.33;;;5.03;;
5951;SDS011;3001;42.622;23.194;2022-09-06T04:18:27;5.80;;;5.50;;
5951;SDS011;3001;42.622;23.194;2022-09-06T04:20:54;8.10;;;5.17;;
5951;SDS011;3001;42.622;23.194;2022-09-06T04:23:22;6.30;;;5.70;;
5951;SDS011;3001;42.622;23.194;2022-09-06T04:25:50;6.10;;;5.70;;
5951;SDS011;3001;42.622;23.194;2022-09-06T04:28:18;6.83;;;6.43;;
5951;SDS011;3001;42.622;23.194;2022-09-06T04:30:50;6.13;;;5.73;;
5951;SDS011;3001;42.622;23.194;2022-09-06T04:33:17;6.00;;;5.70;;
5951;SDS011;3001;42.622;23.194;2022-09-06T04:35:46;5.77;;;5.47;;
5951;SDS011;3001;42.622;23.194;2022-09-06T04:38:13;6.87;;;6.47;;
5951;SDS011;3001;42.622;23.194;2022-09-06T04:40:40;7.13;;;6.67;;
5951;SDS011;3001;42.622;23.194;2022-09-06T04:43:07;6.83;;;6.37;;
5951;SDS011;3001;42.622;23.194;2022-09-06T04:45:34;7.63;;;6.07;;
5951;SDS011;3001;42.622;23.194;2022-09-06T04:48:02;6.57;;;6.00;;
5951;SDS011;3001;42.622;23.194;2022-09-06T04:50:29;7.20;;;6.57;;
5951;SDS011;3001;42.622;23.194;2022-09-06T04:52:56;7.03;;;6.53;;
5951;SDS011;3001;42.622;23.194;2022-09-06T04:55:23;8.07;;;7.57;;
5951;SDS011;3001;42.622;23.194;2022-09-06T04:57:50;7.53;;;7.03;;
5951;SDS011;3001;42.622;23.194;2022-09-06T05:00:17;7.57;;;7.17;;
5951;SDS011;3001;42.622;23.194;2022-09-06T05:02:44;7.70;;;7.20;;
5951;SDS011;3001;42.622;23.194;2022-09-06T05:05:14;8.40;;;7.80;;
5951;SDS011;3001;42.622;23.194;2022-09-06T05:07:40;8.30;;;7.80;;
5951;SDS011;3001;42.622;23.194;2022-09-06T05:10:07;8.83;;;8.20;;
5951;SDS011;3001;42.622;23.194;2022-09-06T05:12:34;8.90;;;8.30;;
5951;SDS011;3001;42.622;23.194;2022-09-06T05:15:04;8.00;;;7.40;;
5951;SDS011;3001;42.622;23.194;2022-09-06T05:17:32;7.20;;;6.70;;
5951;SDS011;3001;42.622;23.194;2022-09-06T05:19:59;8.17;;;7.57;;
5951;SDS011;3001;42.622;23.194;2022-09-06T05:22:27;8.93;;;8.33;;
5951;SDS011;3001;42.622;23.194;2022-09-06T05:24:53;8.83;;;8.27;;
5951;SDS011;3001;42.622;23.194;2022-09-06T05:27:20;8.87;;;8.17;;
5951;SDS011;3001;42.622;23.194;2022-09-06T05:29:47;9.43;;;8.87;;
5951;SDS011;3001;42.622;23.194;2022-09-06T05:32:13;9.63;;;9.03;;
5951;SDS011;3001;42.622;23.194;2022-09-06T05:34:40;9.20;;;8.67;;
5951;SDS011;3001;42.622;23.194;2022-09-06T05:37:07;8.53;;;8.03;;
5951;SDS011;3001;42.622;23.194;2022-09-06T05:39:35;8.07;;;7.47;;
5951;SDS011;3001;42.622;23.194;2022-09-06T05:42:02;7.83;;;7.33;;
5951;SDS011;3001;42.622;23.194;2022-09-06T05:44:30;7.97;;;7.37;;
5951;SDS011;3001;42.622;23.194;2022-09-06T05:46:58;9.20;;;8.37;;
5951;SDS011;3001;42.622;23.194;2022-09-06T05:49:25;8.13;;;7.60;;
5951;SDS011;3001;42.622;23.194;2022-09-06T05:51:54;9.00;;;8.17;;
5951;SDS011;3001;42.622;23.194;2022-09-06T05:54:20;8.27;;;7.77;;
5951;SDS011;3001;42.622;23.194;2022-09-06T05:56:49;8.57;;;8.00;;
5951;SDS011;3001;42.622;23.194;2022-09-06T05:59:16;7.93;;;7.27;;
5951;SDS011;3001;42.622;23.194;2022-09-06T06:01:46;8.03;;;7.63;;
5951;SDS011;3001;42.622;23.194;2022-09-06T06:04:14;8.63;;;6.70;;
5951;SDS011;3001;42.622;23.194;2022-09-06T06:06:42;9.23;;;8.50;;
5951;SDS011;3001;42.622;23.194;2022-09-06T06:09:10;9.33;;;8.60;;
5951;SDS011;3001;42.622;23.194;2022-09-06T06:11:37;9.00;;;8.40;;
5951;SDS011;3001;42.622;23.194;2022-09-06T06:14:05;8.33;;;7.63;;
5951;SDS011;3001;42.622;23.194;2022-09-06T06:16:32;8.43;;;7.93;;
5951;SDS011;3001;42.622;23.194;2022-09-06T06:18:59;9.07;;;7.73;;
5951;SDS011;3001;42.622;23.194;2022-09-06T06:21:26;9.20;;;8.60;;
5951;SDS011;3001;42.622;23.194;2022-09-06T06:23:56;8.10;;;7.60;;
5951;SDS011;3001;42.622;23.194;2022-09-06T06:26:24;8.17;;;7.60;;
5951;SDS011;3001;42.622;23.194;2022-09-06T06:28:52;8.10;;;7.60;;
5951;SDS011;3001;42.622;23.194;2022-09-06T06:31:21;8.33;;;7.73;;
5951;SDS011;3001;42.622;23.194;2022-09-06T06:33:48;9.53;;;8.67;;
5951;SDS011;3001;42.622;23.194;2022-09-06T06:36:19;8.43;;;7.77;;
5951;SDS011;3001;42.622;23.194;2022-09-06T06:38:47;9.20;;;8.50;;
5951;SDS011;3001;42.622;23.194;2022-09-06T06:41:16;8.97;;;8.27;;
5951;SDS011;3001;42.622;23.194;2022-09-06T06:43:44;9.37;;;8.67;;
5951;SDS011;3001;42.622;23.194;2022-09-06T06:46:11;8.57;;;7.87;;
5951;SDS011;3001;42.622;23.194;2022-09-06T06:48:41;8.60;;;7.73;;
5951;SDS011;3001;42.622;23.194;2022-09-06T06:51:09;8.07;;;7.57;;
5951;SDS011;3001;42.622;23.194;2022-09-06T06:53:37;8.17;;;7.60;;
5951;SDS011;3001;42.622;23.194;2022-09-06T06:56:12;10.60;;;8.13;;
5951;SDS011;3001;42.622;23.194;2022-09-06T06:58:40;7.50;;;6.80;;
5951;SDS011;3001;42.622;23.194;2022-09-06T07:01:07;8.13;;;7.33;;
5951;SDS011;3001;42.622;23.194;2022-09-06T07:03:34;8.00;;;7.27;;
5951;SDS011;3001;42.622;23.194;2022-09-06T07:06:02;6.60;;;6.20;;
5951;SDS011;3001;42.622;23.194;2022-09-06T07:08:30;7.40;;;7.00;;
5951;SDS011;3001;42.622;23.194;2022-09-06T07:10:57;6.70;;;6.27;;
5951;SDS011;3001;42.622;23.194;2022-09-06T07:13:24;6.03;;;5.73;;
5951;SDS011;3001;42.622;23.194;2022-09-06T07:15:51;6.87;;;6.37;;
5951;SDS011;3001;42.622;23.194;2022-09-06T07:18:18;6.00;;;5.50;;
5951;SDS011;3001;42.622;23.194;2022-09-06T07:20:45;6.63;;;6.23;;
5951;SDS011;3001;42.622;23.194;2022-09-06T07:23:13;6.70;;;6.40;;
5951;SDS011;3001;42.622;23.194;2022-09-06T07:25:39;5.97;;;5.67;;
5951;SDS011;3001;42.622;23.194;2022-09-06T07:28:06;5.97;;;5.67;;
5951;SDS011;3001;42.622;23.194;2022-09-06T07:30:33;6.07;;;5.60;;
5951;SDS011;3001;42.622;23.194;2022-09-06T07:33:01;6.07;;;5.67;;
5951;SDS011;3001;42.622;23.194;2022-09-06T07:35:29;6.43;;;6.13;;
5951;SDS011;3001;42.622;23.194;2022-09-06T07:37:57;5.87;;;5.57;;
5951;SDS011;3001;42.622;23.194;2022-09-06T07:40:27;6.00;;;5.60;;
5951;SDS011;3001;42.622;23.194;2022-09-06T07:42:55;5.87;;;5.57;;
5951;SDS011;3001;42.622;23.194;2022-09-06T07:45:23;7.00;;;6.50;;
5951;SDS011;3001;42.622;23.194;2022-09-06T07:47:53;5.77;;;5.40;;
5951;SDS011;3001;42.622;23.194;2022-09-06T07:50:22;6.60;;;6.00;;
5951;SDS011;3001;42.622;23.194;2022-09-06T07:52:49;6.00;;;5.70;;
5951;SDS011;3001;42.622;23.194;2022-09-06T07:55:16;6.00;;;5.70;;
5951;SDS011;3001;42.622;23.194;2022-09-06T07:57:44;5.83;;;5.53;;
5951;SDS011;3001;42.622;23.194;2022-09-06T08:00:11;5.97;;;5.67;;
5951;SDS011;3001;42.622;23.194;2022-09-06T08:02:38;5.53;;;5.13;;
5951;SDS011;3001;42.622;23.194;2022-09-06T08:05:05;6.30;;;5.70;;
5951;SDS011;3001;42.622;23.194;2022-09-06T08:07:32;6.10;;;5.70;;
5951;SDS011;3001;42.622;23.194;2022-09-06T08:09:59;6.27;;;5.97;;
5951;SDS011;3001;42.622;23.194;2022-09-06T08:12:25;6.03;;;5.73;;
5951;SDS011;3001;42.622;23.194;2022-09-06T08:14:54;6.30;;;6.00;;
5951;SDS011;3001;42.622;23.194;2022-09-06T08:17:21;6.20;;;5.80;;
5951;SDS011;3001;42.622;23.194;2022-09-06T08:19:48;6.40;;;6.00;;
5951;SDS011;3001;42.622;23.194;2022-09-06T08:22:15;7.13;;;6.60;;
5951;SDS011;3001;42.622;23.194;2022-09-06T08:24:41;6.17;;;5.87;;
5951;SDS011;3001;42.622;23.194;2022-09-06T08:27:08;6.17;;;5.77;;
5951;SDS011;3001;42.622;23.194;2022-09-06T08:29:35;7.13;;;6.83;;
5951;SDS011;3001;42.622;23.194;2022-09-06T08:32:05;14.00;;;6.60;;
5951;SDS011;3001;42.622;23.194;2022-09-06T08:34:32;7.20;;;6.63;;
5951;SDS011;3001;42.622;23.194;2022-09-06T08:36:58;7.00;;;6.60;;
5951;SDS011;3001;42.622;23.194;2022-09-06T08:39:25;7.23;;;6.77;;
5951;SDS011;3001;42.622;23.194;2022-09-06T08:41:54;7.07;;;6.53;;
5951;SDS011;3001;42.622;23.194;2022-09-06T08:44:24;7.40;;;7.00;;
5951;SDS011;3001;42.622;23.194;2022-09-06T08:46:54;6.90;;;6.60;;
5951;SDS011;3001;42.622;23.194;2022-09-06T08:49:24;7.93;;;7.50;;
5951;SDS011;3001;42.622;23.194;2022-09-06T08:52:02;7.20;;;6.90;;
5951;SDS011;3001;42.622;23.194;2022-09-06T08:55:01;6.77;;;6.47;;
5951;SDS011;3001;42.622;23.194;2022-09-06T08:57:44;6.60;;;6.27;;
5951;SDS011;3001;42.622;23.194;2022-09-06T09:00:25;6.57;;;6.17;;
5951;SDS011;3001;42.622;23.194;2022-09-06T09:02:53;6.40;;;6.10;;
5951;SDS011;3001;42.622;23.194;2022-09-06T09:05:33;7.17;;;6.50;;
5951;SDS011;3001;42.622;23.194;2022-09-06T09:08:03;6.57;;;6.23;;
5951;SDS011;3001;42.622;23.194;2022-09-06T09:10:36;7.47;;;7.07;;
5951;SDS011;3001;42.622;23.194;2022-09-06T09:13:06;6.47;;;6.17;;
5951;SDS011;3001;42.622;23.194;2022-09-06T09:15:40;7.30;;;6.67;;
5951;SDS011;3001;42.622;23.194;2022-09-06T09:18:07;6.30;;;6.00;;
5951;SDS011;3001;42.622;23.194;2022-09-06T09:20:35;6.50;;;6.07;;
5951;SDS011;3001;42.622;23.194;2022-09-06T09:23:02;6.13;;;5.73;;
5951;SDS011;3001;42.622;23.194;2022-09-06T09:25:30;7.13;;;6.57;;
5951;SDS011;3001;42.622;23.194;2022-09-06T09:27:58;6.40;;;6.10;;
5951;SDS011;3001;42.622;23.194;2022-09-06T09:30:26;6.80;;;6.30;;
5951;SDS011;3001;42.622;23.194;2022-09-06T09:33:18;6.23;;;5.63;;
5951;SDS011;3001;42.622;23.194;2022-09-06T09:35:48;6.67;;;5.90;;
5951;SDS011;3001;42.622;23.194;2022-09-06T09:38:18;5.93;;;5.53;;
5951;SDS011;3001;42.622;23.194;2022-09-06T09:40:49;6.00;;;5.47;;
5951;SDS011;3001;42.622;23.194;2022-09-06T09:43:18;6.40;;;5.90;;
5951;SDS011;3001;42.622;23.194;2022-09-06T09:45:56;6.53;;;5.93;;
5951;SDS011;3001;42.622;23.194;2022-09-06T09:48:34;6.63;;;5.83;;
5951;SDS011;3001;42.622;23.194;2022-09-06T09:51:14;5.70;;;5.30;;
5951;SDS011;3001;42.622;23.194;2022-09-06T09:53:49;6.50;;;6.20;;
5951;SDS011;3001;42.622;23.194;2022-09-06T09:56:18;5.87;;;5.33;;
5951;SDS011;3001;42.622;23.194;2022-09-06T09:58:52;6.03;;;5.70;;
5951;SDS011;3001;42.622;23.194;2022-09-06T10:01:22;6.63;;;6.13;;
5951;SDS011;3001;42.622;23.194;2022-09-06T10:03:58;7.10;;;6.70;;
5951;SDS011;3001;42.622;23.194;2022-09-06T10:06:28;7.17;;;6.37;;
5951;SDS011;3001;42.622;23.194;2022-09-06T10:08:55;7.87;;;6.00;;
5951;SDS011;3001;42.622;23.194;2022-09-06T10:14:21;6.70;;;6.20;;
5951;SDS011;3001;42.622;23.194;2022-09-06T10:16:51;5.83;;;5.57;;
5951;SDS011;3001;42.622;23.194;2022-09-06T10:19:22;6.13;;;5.53;;
5951;SDS011;3001;42.622;23.194;2022-09-06T10:22:08;5.63;;;5.33;;
5951;SDS011;3001;42.622;23.194;2022-09-06T10:24:52;6.13;;;5.60;;
5951;SDS011;3001;42.622;23.194;2022-09-06T10:27:38;5.40;;;5.10;;
5951;SDS011;3001;42.622;23.194;2022-09-06T10:30:17;5.07;;;4.77;;
5951;SDS011;3001;42.622;23.194;2022-09-06T10:32:44;4.87;;;4.57;;
5951;SDS011;3001;42.622;23.194;2022-09-06T10:35:15;6.93;;;5.40;;
5951;SDS011;3001;42.622;23.194;2022-09-06T10:37:51;5.47;;;5.17;;
5951;SDS011;3001;42.622;23.194;2022-09-06T10:40:32;5.17;;;4.97;;
5951;SDS011;3001;42.622;23.194;2022-09-06T10:43:05;5.63;;;5.03;;
5951;SDS011;3001;42.622;23.194;2022-09-06T10:45:43;5.17;;;4.67;;
5951;SDS011;3001;42.622;23.194;2022-09-06T10:48:14;5.30;;;5.10;;
5951;SDS011;3001;42.622;23.194;2022-09-06T10:50:48;6.43;;;6.13;;
5951;SDS011;3001;42.622;23.194;2022-09-06T10:53:24;4.90;;;4.43;;
5951;SDS011;3001;42.622;23.194;2022-09-06T10:56:00;5.87;;;5.57;;
5951;SDS011;3001;42.622;23.194;2022-09-06T10:58:30;5.13;;;4.83;;
5951;SDS011;3001;42.622;23.194;2022-09-06T11:01:02;7.73;;;5.80;;
5951;SDS011;3001;42.622;23.194;2022-09-06T11:03:33;5.97;;;5.57;;
5951;SDS011;3001;42.622;23.194;2022-09-06T11:06:06;5.63;;;5.13;;
5951;SDS011;3001;42.622;23.194;2022-09-06T11:08:37;6.53;;;6.13;;
5951;SDS011;3001;42.622;23.194;2022-09-06T11:11:10;6.07;;;5.60;;
5951;SDS011;3001;42.622;23.194;2022-09-06T11:13:43;5.00;;;4.70;;
5951;SDS011;3001;42.622;23.194;2022-09-06T11:16:13;4.73;;;4.53;;
5951;SDS011;3001;42.622;23.194;2022-09-06T11:18:44;4.40;;;3.83;;
5951;SDS011;3001;42.622;23.194;2022-09-06T11:21:18;3.70;;;3.50;;
5951;SDS011;3001;42.622;23.194;2022-09-06T11:24:22;9.07;;;4.70;;
5951;SDS011;3001;42.622;23.194;2022-09-06T11:26:58;4.20;;;3.83;;
5951;SDS011;3001;42.622;23.194;2022-09-06T11:29:29;3.17;;;3.03;;
5951;SDS011;3001;42.622;23.194;2022-09-06T11:31:58;3.30;;;3.10;;
5951;SDS011;3001;42.622;23.194;2022-09-06T11:34:27;3.30;;;3.00;;
5951;SDS011;3001;42.622;23.194;2022-09-06T11:36:55;3.40;;;3.20;;
5951;SDS011;3001;42.622;23.194;2022-09-06T11:39:30;3.00;;;2.80;;
5951;SDS011;3001;42.622;23.194;2022-09-06T11:41:59;3.20;;;3.10;;
5951;SDS011;3001;42.622;23.194;2022-09-06T11:47:36;3.10;;;3.00;;
5951;SDS011;3001;42.622;23.194;2022-09-06T11:50:25;3.35;;;3.20;;
5951;SDS011;3001;42.622;23.194;2022-09-06T11:53:21;3.90;;;3.70;;
5951;SDS011;3001;42.622;23.194;2022-09-06T11:55:50;5.40;;;4.30;;
5951;SDS011;3001;42.622;23.194;2022-09-06T11:58:50;3.28;;;2.95;;
5951;SDS011;3001;42.622;23.194;2022-09-06T12:01:37;2.88;;;2.78;;
5951;SDS011;3001;42.622;23.194;2022-09-06T12:04:08;3.00;;;2.90;;
5951;SDS011;3001;42.622;23.194;2022-09-06T12:06:36;2.95;;;2.80;;
5951;SDS011;3001;42.622;23.194;2022-09-06T12:11:56;3.35;;;3.22;;
5951;SDS011;3001;42.622;23.194;2022-09-06T12:14:31;2.55;;;2.45;;
5951;SDS011;3001;42.622;23.194;2022-09-06T12:19:51;2.90;;;2.80;;
5951;SDS011;3001;42.622;23.194;2022-09-06T12:28:28;3.40;;;3.10;;
5951;SDS011;3001;42.622;23.194;2022-09-06T12:30:59;2.85;;;2.75;;
5951;SDS011;3001;42.622;23.194;2022-09-06T12:33:28;3.20;;;3.00;;
5951;SDS011;3001;42.622;23.194;2022-09-06T12:36:12;2.72;;;2.35;;
5951;SDS011;3001;42.622;23.194;2022-09-06T12:38:52;3.25;;;2.90;;
5951;SDS011;3001;42.622;23.194;2022-09-06T12:41:20;3.50;;;3.15;;
5951;SDS011;3001;42.622;23.194;2022-09-06T12:43:49;3.00;;;2.90;;
5951;SDS011;3001;42.622;23.194;2022-09-06T12:46:16;3.30;;;3.20;;
5951;SDS011;3001;42.622;23.194;2022-09-06T12:48:43;3.25;;;3.15;;
5951;SDS011;3001;42.622;23.194;2022-09-06T12:51:25;3.05;;;2.88;;
5951;SDS011;3001;42.622;23.194;2022-09-06T12:53:52;3.22;;;3.03;;
5951;SDS011;3001;42.622;23.194;2022-09-06T12:56:22;3.58;;;3.38;;
5951;SDS011;3001;42.622;23.194;2022-09-06T12:58:52;3.15;;;3.05;;
5951;SDS011;3001;42.622;23.194;2022-09-06T13:01:34;2.88;;;2.78;;
5951;SDS011;3001;42.622;23.194;2022-09-06T13:04:03;2.88;;;2.65;;
5951;SDS011;3001;42.622;23.194;2022-09-06T13:06:37;2.85;;;2.75;;
5951;SDS011;3001;42.622;23.194;2022-09-06T13:09:06;2.60;;;2.50;;
5951;SDS011;3001;42.622;23.194;2022-09-06T13:11:37;2.75;;;2.65;;
5951;SDS011;3001;42.622;23.194;2022-09-06T13:14:10;2.10;;;2.00;;
5951;SDS011;3001;42.622;23.194;2022-09-06T13:16:41;2.60;;;2.50;;
5951;SDS011;3001;42.622;23.194;2022-09-06T13:19:11;3.35;;;2.30;;
5951;SDS011;3001;42.622;23.194;2022-09-06T13:21:40;2.10;;;2.00;;
5951;SDS011;3001;42.622;23.194;2022-09-06T13:24:18;2.53;;;2.42;;
5951;SDS011;3001;42.622;23.194;2022-09-06T13:26:46;2.33;;;2.22;;
5951;SDS011;3001;42.622;23.194;2022-09-06T13:29:25;2.42;;;2.33;;
5951;SDS011;3001;42.622;23.194;2022-09-06T13:31:55;2.30;;;2.20;;
5951;SDS011;3001;42.622;23.194;2022-09-06T13:34:24;2.47;;;2.28;;
5951;SDS011;3001;42.622;23.194;2022-09-06T13:36:53;1.95;;;1.92;;
5951;SDS011;3001;42.622;23.194;2022-09-06T13:39:28;2.00;;;2.00;;
5951;SDS011;3001;42.622;23.194;2022-09-06T13:41:59;2.20;;;2.10;;
5951;SDS011;3001;42.622;23.194;2022-09-06T13:44:30;3.78;;;2.42;;
5951;SDS011;3001;42.622;23.194;2022-09-06T13:46:58;2.10;;;1.90;;
5951;SDS011;3001;42.622;23.194;2022-09-06T13:49:25;2.65;;;2.00;;
5951;SDS011;3001;42.622;23.194;2022-09-06T13:51:53;2.30;;;2.10;;
5951;SDS011;3001;42.622;23.194;2022-09-06T13:54:20;2.05;;;2.00;;
5951;SDS011;3001;42.622;23.194;2022-09-06T13:56:47;2.53;;;2.33;;
5951;SDS011;3001;42.622;23.194;2022-09-06T13:59:15;3.83;;;2.30;;
5951;SDS011;3001;42.622;23.194;2022-09-06T14:01:44;2.60;;;2.50;;
5951;SDS011;3001;42.622;23.194;2022-09-06T14:04:16;3.30;;;3.10;;
5951;SDS011;3001;42.622;23.194;2022-09-06T14:06:45;4.93;;;2.40;;
5951;SDS011;3001;42.622;23.194;2022-09-06T14:09:13;2.30;;;2.10;;
5951;SDS011;3001;42.622;23.194;2022-09-06T14:11:40;2.20;;;2.10;;
5951;SDS011;3001;42.622;23.194;2022-09-06T14:14:09;2.37;;;2.27;;
5951;SDS011;3001;42.622;23.194;2022-09-06T14:16:36;2.83;;;2.23;;
5951;SDS011;3001;42.622;23.194;2022-09-06T14:19:04;2.73;;;2.27;;
5951;SDS011;3001;42.622;23.194;2022-09-06T14:21:31;2.23;;;2.13;;
5951;SDS011;3001;42.622;23.194;2022-09-06T14:23:58;4.60;;;2.20;;
5951;SDS011;3001;42.622;23.194;2022-09-06T14:26:26;2.50;;;2.40;;
5951;SDS011;3001;42.622;23.194;2022-09-06T14:28:53;2.47;;;2.37;;
5951;SDS011;3001;42.622;23.194;2022-09-06T14:31:21;2.30;;;2.20;;
5951;SDS011;3001;42.622;23.194;2022-09-06T14:33:50;3.20;;;2.00;;
5951;SDS011;3001;42.622;23.194;2022-09-06T14:36:19;4.97;;;2.90;;
5951;SDS011;3001;42.622;23.194;2022-09-06T14:38:47;3.07;;;2.27;;
5951;SDS011;3001;42.622;23.194;2022-09-06T14:41:16;2.50;;;2.37;;
5951;SDS011;3001;42.622;23.194;2022-09-06T14:43:45;2.53;;;2.43;;
5951;SDS011;3001;42.622;23.194;2022-09-06T14:46:15;2.50;;;2.30;;
5951;SDS011;3001;42.622;23.194;2022-09-06T14:48:43;3.80;;;2.27;;
5951;SDS011;3001;42.622;23.194;2022-09-06T14:51:11;2.63;;;2.53;;
5951;SDS011;3001;42.622;23.194;2022-09-06T14:53:43;2.80;;;2.60;;
5951;SDS011;3001;42.622;23.194;2022-09-06T14:56:11;2.57;;;2.47;;
5951;SDS011;3001;42.622;23.194;2022-09-06T14:58:38;2.90;;;2.80;;
5951;SDS011;3001;42.622;23.194;2022-09-06T15:01:09;3.30;;;3.10;;
5951;SDS011;3001;42.622;23.194;2022-09-06T15:03:37;3.07;;;2.77;;
5951;SDS011;3001;42.622;23.194;2022-09-06T15:06:06;3.20;;;2.70;;
5951;SDS011;3001;42.622;23.194;2022-09-06T15:08:33;2.70;;;2.60;;
5951;SDS011;3001;42.622;23.194;2022-09-06T15:11:03;2.53;;;2.43;;
5951;SDS011;3001;42.622;23.194;2022-09-06T15:13:32;3.07;;;2.83;;
5951;SDS011;3001;42.622;23.194;2022-09-06T15:15:59;3.37;;;3.07;;
5951;SDS011;3001;42.622;23.194;2022-09-06T15:18:29;3.00;;;2.80;;
5951;SDS011;3001;42.622;23.194;2022-09-06T15:20:57;3.90;;;2.53;;
5951;SDS011;3001;42.622;23.194;2022-09-06T15:23:25;2.50;;;2.40;;
5951;SDS011;3001;42.622;23.194;2022-09-06T15:25:52;3.00;;;2.90;;
5951;SDS011;3001;42.622;23.194;2022-09-06T15:28:20;2.67;;;2.57;;
5951;SDS011;3001;42.622;23.194;2022-09-06T15:30:47;2.67;;;2.57;;
5951;SDS011;3001;42.622;23.194;2022-09-06T15:33:14;2.23;;;2.07;;
5951;SDS011;3001;42.622;23.194;2022-09-06T15:35:41;2.60;;;2.40;;
5951;SDS011;3001;42.622;23.194;2022-09-06T15:38:08;2.90;;;2.80;;
5951;SDS011;3001;42.622;23.194;2022-09-06T15:40:35;2.80;;;2.70;;